createdAt,value
2023-04-23T00:04:09.456Z,8.90
2023-04-23T00:09:14.804Z,18.90
2023-04-23T00:14:17.399Z,14.20
2023-04-23T00:19:21.101Z,8.90
2023-04-23T00:24:23.586Z,9.00
2023-04-23T00:29:26.092Z,12.30
2023-04-23T00:34:28.875Z,7.60
2023-04-23T00:39:31.404Z,7.50
2023-04-23T00:44:34.036Z,8.30
2023-04-23T00:49:37.147Z,8.70
2023-04-23T00:54:39.809Z,9.20
2023-04-23T00:59:42.985Z,6.70
2023-04-23T01:04:45.513Z,5.70
2023-04-23T01:09:50.222Z,4.80
2023-04-23T01:14:53.285Z,6.00
2023-04-23T01:19:56.662Z,6.20
2023-04-23T01:24:59.455Z,8.10
2023-04-23T01:30:04.921Z,6.90
2023-04-23T01:35:08.199Z,5.70
2023-04-23T01:40:11.095Z,5.70
2023-04-23T01:45:13.841Z,5.10
2023-04-23T01:50:16.503Z,5.50
2023-04-23T01:55:19.302Z,4.80
2023-04-23T02:00:21.834Z,5.30
2023-04-23T02:05:25.758Z,5.70
2023-04-23T02:10:29.497Z,6.20
2023-04-23T02:15:32.561Z,6.10
2023-04-23T02:20:38.746Z,5.20
2023-04-23T02:30:46.223Z,5.30
2023-04-23T02:35:48.737Z,6.10
2023-04-23T02:40:51.820Z,5.40
2023-04-23T02:45:54.279Z,6.60
2023-04-23T02:50:56.780Z,5.70
2023-04-23T02:55:59.335Z,5.20
2023-04-23T03:01:02.720Z,5.70
2023-04-23T03:06:06.767Z,5.20
2023-04-23T03:11:09.287Z,5.70
2023-04-23T03:16:11.850Z,5.30
2023-04-23T03:21:14.477Z,4.80
2023-04-23T03:26:16.990Z,4.90
2023-04-23T03:31:19.614Z,5.10
2023-04-23T03:36:22.257Z,5.10
2023-04-23T03:41:25.435Z,5.50
2023-04-23T03:46:28.007Z,5.00
2023-04-23T03:51:31.621Z,5.10
2023-04-23T03:56:34.160Z,4.80
2023-04-23T04:01:36.908Z,4.80
2023-04-23T04:06:39.451Z,5.90
2023-04-23T04:11:42.111Z,6.10
2023-04-23T04:16:44.644Z,5.50
2023-04-23T04:21:47.812Z,5.10
2023-04-23T04:26:50.396Z,4.70
2023-04-23T04:31:54.419Z,5.20
2023-04-23T04:36:57.179Z,4.80
2023-04-23T04:41:59.902Z,5.00
2023-04-23T04:47:02.636Z,5.30
2023-04-23T04:52:05.268Z,5.20
2023-04-23T04:57:08.202Z,5.30
2023-04-23T05:02:11.058Z,6.00
2023-04-23T05:07:13.623Z,5.90
2023-04-23T05:12:16.114Z,5.80
2023-04-23T05:17:18.660Z,5.90
2023-04-23T05:22:21.513Z,6.60
2023-04-23T05:27:24.157Z,6.40
2023-04-23T05:32:26.807Z,6.50
2023-04-23T05:37:30.117Z,6.50
2023-04-23T05:42:34.328Z,6.60
2023-04-23T05:47:37.141Z,6.80
2023-04-23T05:52:40.143Z,6.50
2023-04-23T05:57:43.223Z,6.50
2023-04-23T06:02:46.080Z,7.80
2023-04-23T06:07:48.808Z,7.90
2023-04-23T06:12:51.422Z,7.00
2023-04-23T06:17:54.608Z,7.60
2023-04-23T06:22:57.219Z,7.40
2023-04-23T06:27:59.865Z,6.50
2023-04-23T06:33:02.587Z,6.60
2023-04-23T06:38:06.642Z,7.50
2023-04-23T06:43:09.926Z,6.60
2023-04-23T06:48:12.510Z,6.50
2023-04-23T06:53:15.623Z,6.40
2023-04-23T06:58:18.419Z,6.00
2023-04-23T07:03:21.095Z,5.90
2023-04-23T07:08:23.696Z,6.00
2023-04-23T07:13:26.427Z,5.50
2023-04-23T07:18:29.024Z,7.70
2023-04-23T07:23:31.548Z,6.00
2023-04-23T07:28:34.395Z,6.20
2023-04-23T07:33:37.009Z,5.80
2023-04-23T07:38:41.092Z,4.90
2023-04-23T07:43:43.622Z,5.40
2023-04-23T07:48:46.161Z,4.80
2023-04-23T07:53:51.208Z,5.20
2023-04-23T07:58:54.210Z,5.40
2023-04-23T08:03:59.668Z,4.90
2023-04-23T08:09:06.722Z,5.20
2023-04-23T08:14:09.417Z,5.70
2023-04-23T08:19:11.970Z,5.60
2023-04-23T08:24:14.470Z,5.50
2023-04-23T08:29:17.009Z,5.50
2023-04-23T08:34:19.500Z,5.00
2023-04-23T08:39:22.298Z,5.00
2023-04-23T08:44:26.124Z,5.10
2023-04-23T08:49:33.815Z,5.30
2023-04-23T08:54:37.977Z,4.90
2023-04-23T08:59:40.977Z,5.10
2023-04-23T09:04:45.589Z,4.90
2023-04-23T09:09:48.212Z,4.80
2023-04-23T09:14:51.570Z,4.90
2023-04-23T09:19:54.864Z,4.70
2023-04-23T09:25:01.744Z,4.60
2023-04-23T09:30:07.967Z,4.10
2023-04-23T09:35:20.113Z,4.60
2023-04-23T09:40:24.767Z,4.30
2023-04-23T09:45:29.861Z,4.50
2023-04-23T09:50:32.430Z,4.10
2023-04-23T09:55:38.890Z,4.00
2023-04-23T10:00:42.613Z,3.90
2023-04-23T10:06:00.623Z,4.20
2023-04-23T10:11:20.107Z,4.00
2023-04-23T10:16:26.789Z,4.40
2023-04-23T10:21:50.146Z,4.80
2023-04-23T10:26:59.790Z,4.50
2023-04-23T10:32:06.733Z,4.90
2023-04-23T10:37:11.330Z,4.90
2023-04-23T10:47:17.452Z,4.80
2023-04-23T10:52:23.566Z,4.60
2023-04-23T10:57:27.952Z,4.70
2023-04-23T11:02:44.339Z,4.90
2023-04-23T11:08:18.959Z,4.20
2023-04-23T11:13:26.844Z,4.30
2023-04-23T11:18:29.449Z,4.90
2023-04-23T11:23:33.030Z,4.70
2023-04-23T11:28:36.752Z,4.10
2023-04-23T11:33:39.377Z,4.40
2023-04-23T11:38:42.183Z,4.40
2023-04-23T11:43:44.782Z,4.40
2023-04-23T11:48:50.446Z,4.70
2023-04-23T11:53:53.121Z,4.40
2023-04-23T11:59:03.783Z,4.60
2023-04-23T12:04:15.321Z,4.60
2023-04-23T12:09:21.001Z,4.30
2023-04-23T12:14:29.317Z,4.30
2023-04-23T12:19:31.893Z,3.70
2023-04-23T12:24:54.397Z,4.00
2023-04-23T12:30:01.007Z,4.40
2023-04-23T12:35:06.352Z,4.10
2023-04-23T12:40:09.394Z,3.90
2023-04-23T12:45:12.173Z,3.90
2023-04-23T12:50:14.751Z,4.20
2023-04-23T12:55:17.523Z,4.20
2023-04-23T13:00:20.059Z,4.00
2023-04-23T13:05:23.633Z,3.80
2023-04-23T13:10:26.216Z,4.00
2023-04-23T13:15:29.012Z,4.10
2023-04-23T13:20:31.583Z,4.40
2023-04-23T13:25:34.953Z,4.20
2023-04-23T13:30:37.597Z,4.70
2023-04-23T13:35:41.108Z,3.80
2023-04-23T13:40:43.752Z,4.60
2023-04-23T13:45:47.768Z,4.10
2023-04-23T13:50:50.845Z,4.00
2023-04-23T13:55:57.291Z,3.70
2023-04-23T14:00:59.878Z,3.90
2023-04-23T14:06:02.907Z,3.70
2023-04-23T14:11:05.616Z,4.20
2023-04-23T14:16:08.183Z,3.70
2023-04-23T14:21:15.631Z,3.80
2023-04-23T14:31:38.714Z,4.40
2023-04-23T14:36:41.442Z,4.30
2023-04-23T14:41:44.635Z,3.40
2023-04-23T14:46:50.000Z,4.40
2023-04-23T14:51:57.869Z,4.30
2023-04-23T14:57:00.506Z,3.90
2023-04-23T15:02:03.533Z,4.00
2023-04-23T15:07:06.408Z,3.80
2023-04-23T15:12:37.684Z,3.50
2023-04-23T15:17:40.789Z,3.90
2023-04-23T15:22:44.729Z,3.70
2023-04-23T15:27:47.364Z,3.50
2023-04-23T15:32:50.127Z,3.90
2023-04-23T15:37:54.022Z,3.50
2023-04-23T15:42:56.604Z,4.00
2023-04-23T15:47:59.243Z,4.10
2023-04-23T15:53:02.623Z,4.80
2023-04-23T15:58:06.155Z,4.60
2023-04-23T16:03:09.181Z,4.40
2023-04-23T16:08:12.018Z,3.90
2023-04-23T16:13:16.787Z,3.80
2023-04-23T16:18:19.458Z,3.80
2023-04-23T16:28:24.678Z,4.10
2023-04-23T16:33:27.491Z,4.80
2023-04-23T16:38:30.023Z,4.80
2023-04-23T16:43:32.689Z,4.50
2023-04-23T16:48:35.499Z,4.90
2023-04-23T16:53:38.132Z,4.90
2023-04-23T16:58:40.760Z,5.30
2023-04-23T17:03:44.923Z,9.60
2023-04-23T17:08:47.753Z,8.70
2023-04-23T17:13:54.359Z,5.70
2023-04-23T17:18:57.037Z,11.80
2023-04-23T17:23:59.684Z,16.70
2023-04-23T17:29:02.232Z,11.60
2023-04-23T17:34:04.836Z,7.30
2023-04-23T17:39:10.136Z,6.60
2023-04-23T17:49:15.388Z,6.00
2023-04-23T17:54:18.115Z,6.70
2023-04-23T17:59:20.910Z,6.40
2023-04-23T18:04:24.042Z,6.20
2023-04-23T18:09:26.937Z,6.20
2023-04-23T18:14:29.473Z,6.50
2023-04-23T18:19:32.185Z,6.60
2023-04-23T18:24:34.720Z,6.30
2023-04-23T18:29:37.679Z,6.40
2023-04-23T18:34:41.316Z,6.40
2023-04-23T18:39:43.836Z,8.90
2023-04-23T18:44:46.483Z,7.80
2023-04-23T18:50:02.547Z,7.20
2023-04-23T18:55:05.511Z,6.90
2023-04-23T19:00:08.744Z,7.00
2023-04-23T19:05:11.488Z,6.80
2023-04-23T19:10:16.219Z,8.00
2023-04-23T19:15:19.038Z,7.10
2023-04-23T19:20:21.613Z,6.50
2023-04-23T19:25:24.154Z,7.50
2023-04-23T19:30:26.922Z,7.70
2023-04-23T19:35:29.509Z,6.30
2023-04-23T19:40:32.188Z,6.90
2023-04-23T19:45:35.513Z,6.80
2023-04-23T19:50:38.364Z,6.40
2023-04-23T19:55:41.063Z,6.20
2023-04-23T20:00:44.092Z,6.30
2023-04-23T20:05:48.186Z,6.20
2023-04-23T20:10:50.718Z,5.90
2023-04-23T20:15:53.688Z,6.20
2023-04-23T20:20:56.263Z,6.20
2023-04-23T20:25:59.257Z,6.30
2023-04-23T20:31:01.847Z,6.00
2023-04-23T20:36:06.711Z,6.20
2023-04-23T20:41:10.907Z,7.00
2023-04-23T20:46:16.196Z,6.60
2023-04-23T20:51:23.113Z,6.70
2023-04-23T20:56:25.991Z,6.90
2023-04-23T21:01:28.846Z,8.50
2023-04-23T21:06:33.280Z,8.90
2023-04-23T21:11:36.012Z,10.30
2023-04-23T21:16:38.706Z,9.30
2023-04-23T21:21:41.303Z,8.20
2023-04-23T21:26:44.047Z,8.20
2023-04-23T21:31:48.499Z,8.60
2023-04-23T21:36:51.307Z,9.70
2023-04-23T21:41:53.971Z,10.20
2023-04-23T21:46:56.700Z,9.90
2023-04-23T21:52:00.530Z,10.60
2023-04-23T21:57:03.214Z,9.20
2023-04-23T22:02:05.906Z,9.40
2023-04-23T22:07:12.507Z,9.10
2023-04-23T22:12:15.614Z,9.10
2023-04-23T22:17:18.363Z,9.20
2023-04-23T22:22:21.223Z,9.20
2023-04-23T22:27:23.825Z,10.30
2023-04-23T22:32:27.472Z,9.90
2023-04-23T22:37:31.327Z,10.20
2023-04-23T22:42:33.920Z,8.80
2023-04-23T22:47:36.845Z,10.10
2023-04-23T22:52:39.499Z,10.60
2023-04-23T22:57:42.092Z,10.50
2023-04-23T23:02:44.696Z,9.80
2023-04-23T23:07:47.309Z,10.10
2023-04-23T23:12:50.312Z,8.60
2023-04-23T23:17:53.753Z,9.60
2023-04-23T23:22:56.400Z,9.50
2023-04-23T23:27:58.951Z,9.70
2023-04-23T23:33:01.732Z,9.60
2023-04-23T23:38:04.269Z,9.10
2023-04-23T23:43:06.844Z,9.00
2023-04-23T23:48:09.585Z,9.00
2023-04-23T23:53:12.064Z,7.60
2023-04-23T23:58:14.771Z,7.90
